sensor_id;sensor_type;location;lat;lon;timestamp;P1;durP1;ratioP1;P2;durP2;ratioP2
39448;SDS011;25151;45.566;9.382;2022-12-04T00:02:32;5.47;;;2.30;;
39448;SDS011;25151;45.566;9.382;2022-12-04T00:05:33;4.97;;;2.50;;
39448;SDS011;25151;45.566;9.382;2022-12-04T00:08:34;3.42;;;2.65;;
39448;SDS011;25151;45.566;9.382;2022-12-04T00:11:36;3.33;;;2.33;;
39448;SDS011;25151;45.566;9.382;2022-12-04T00:14:38;4.15;;;2.60;;
39448;SDS011;25151;45.566;9.382;2022-12-04T00:17:39;3.05;;;2.33;;
39448;SDS011;25151;45.566;9.382;2022-12-04T00:20:41;3.80;;;2.92;;
39448;SDS011;25151;45.566;9.382;2022-12-04T00:23:41;3.13;;;2.50;;
39448;SDS011;25151;45.566;9.382;2022-12-04T00:26:42;2.72;;;2.00;;
39448;SDS011;25151;45.566;9.382;2022-12-04T00:29:43;3.15;;;2.35;;
39448;SDS011;25151;45.566;9.382;2022-12-04T00:32:44;2.78;;;2.03;;
39448;SDS011;25151;45.566;9.382;2022-12-04T00:35:45;2.78;;;2.22;;
39448;SDS011;25151;45.566;9.382;2022-12-04T00:38:46;4.00;;;2.47;;
39448;SDS011;25151;45.566;9.382;2022-12-04T00:41:47;8.18;;;3.38;;
39448;SDS011;25151;45.566;9.382;2022-12-04T00:44:48;3.47;;;2.42;;
39448;SDS011;25151;45.566;9.382;2022-12-04T00:47:49;3.17;;;2.50;;
39448;SDS011;25151;45.566;9.382;2022-12-04T00:50:50;3.78;;;2.22;;
39448;SDS011;25151;45.566;9.382;2022-12-04T00:53:51;3.60;;;2.40;;
39448;SDS011;25151;45.566;9.382;2022-12-04T00:56:52;3.58;;;2.03;;
39448;SDS011;25151;45.566;9.382;2022-12-04T00:59:53;4.10;;;2.60;;
39448;SDS011;25151;45.566;9.382;2022-12-04T01:02:54;3.15;;;2.60;;
39448;SDS011;25151;45.566;9.382;2022-12-04T01:05:54;3.38;;;2.40;;
39448;SDS011;25151;45.566;9.382;2022-12-04T01:08:56;2.42;;;2.15;;
39448;SDS011;25151;45.566;9.382;2022-12-04T01:11:58;4.10;;;2.40;;
39448;SDS011;25151;45.566;9.382;2022-12-04T01:14:59;2.80;;;2.20;;
39448;SDS011;25151;45.566;9.382;2022-12-04T01:18:00;2.78;;;2.13;;
39448;SDS011;25151;45.566;9.382;2022-12-04T01:21:01;2.53;;;1.95;;
39448;SDS011;25151;45.566;9.382;2022-12-04T01:24:02;3.47;;;2.33;;
39448;SDS011;25151;45.566;9.382;2022-12-04T01:27:03;3.47;;;2.33;;
39448;SDS011;25151;45.566;9.382;2022-12-04T01:30:04;3.30;;;2.13;;
39448;SDS011;25151;45.566;9.382;2022-12-04T01:33:05;2.90;;;2.30;;
39448;SDS011;25151;45.566;9.382;2022-12-04T01:36:08;3.38;;;2.67;;
39448;SDS011;25151;45.566;9.382;2022-12-04T01:39:11;3.40;;;1.95;;
39448;SDS011;25151;45.566;9.382;2022-12-04T01:42:12;3.30;;;2.17;;
39448;SDS011;25151;45.566;9.382;2022-12-04T01:48:34;2.92;;;2.33;;
39448;SDS011;25151;45.566;9.382;2022-12-04T01:51:42;4.43;;;2.87;;
39448;SDS011;25151;45.566;9.382;2022-12-04T01:54:52;2.92;;;2.22;;
39448;SDS011;25151;45.566;9.382;2022-12-04T01:57:56;3.22;;;2.30;;
39448;SDS011;25151;45.566;9.382;2022-12-04T02:00:59;2.97;;;2.10;;
39448;SDS011;25151;45.566;9.382;2022-12-04T02:04:03;2.58;;;2.22;;
39448;SDS011;25151;45.566;9.382;2022-12-04T02:07:05;2.42;;;2.22;;
39448;SDS011;25151;45.566;9.382;2022-12-04T02:10:06;3.22;;;2.40;;
39448;SDS011;25151;45.566;9.382;2022-12-04T02:13:13;3.22;;;2.13;;
39448;SDS011;25151;45.566;9.382;2022-12-04T02:16:29;3.33;;;2.00;;
39448;SDS011;25151;45.566;9.382;2022-12-04T02:19:56;3.53;;;2.50;;
39448;SDS011;25151;45.566;9.382;2022-12-04T02:29:58;2.67;;;2.35;;
39448;SDS011;25151;45.566;9.382;2022-12-04T02:33:06;2.83;;;2.03;;
39448;SDS011;25151;45.566;9.382;2022-12-04T02:36:21;3.03;;;2.22;;
39448;SDS011;25151;45.566;9.382;2022-12-04T02:39:29;2.33;;;1.90;;
39448;SDS011;25151;45.566;9.382;2022-12-04T02:42:43;2.70;;;2.10;;
39448;SDS011;25151;45.566;9.382;2022-12-04T02:49:00;3.60;;;2.42;;
39448;SDS011;25151;45.566;9.382;2022-12-04T02:52:08;2.75;;;2.33;;
39448;SDS011;25151;45.566;9.382;2022-12-04T02:55:15;4.82;;;2.45;;
39448;SDS011;25151;45.566;9.382;2022-12-04T02:58:24;2.80;;;2.45;;
39448;SDS011;25151;45.566;9.382;2022-12-04T03:01:37;5.65;;;2.75;;
39448;SDS011;25151;45.566;9.382;2022-12-04T03:04:42;3.90;;;2.50;;
39448;SDS011;25151;45.566;9.382;2022-12-04T03:07:51;2.63;;;2.08;;
39448;SDS011;25151;45.566;9.382;2022-12-04T03:10:56;3.05;;;2.40;;
39448;SDS011;25151;45.566;9.382;2022-12-04T03:14:01;3.35;;;2.45;;
39448;SDS011;25151;45.566;9.382;2022-12-04T03:17:18;2.92;;;2.17;;
39448;SDS011;25151;45.566;9.382;2022-12-04T03:20:25;2.80;;;2.47;;
39448;SDS011;25151;45.566;9.382;2022-12-04T03:23:28;3.10;;;2.15;;
39448;SDS011;25151;45.566;9.382;2022-12-04T03:26:38;2.28;;;2.00;;
39448;SDS011;25151;45.566;9.382;2022-12-04T03:29:49;3.30;;;2.42;;
39448;SDS011;25151;45.566;9.382;2022-12-04T03:33:09;3.58;;;2.10;;
39448;SDS011;25151;45.566;9.382;2022-12-04T03:36:24;2.58;;;2.38;;
39448;SDS011;25151;45.566;9.382;2022-12-04T03:39:35;2.63;;;2.08;;
39448;SDS011;25151;45.566;9.382;2022-12-04T03:42:50;3.15;;;2.67;;
39448;SDS011;25151;45.566;9.382;2022-12-04T03:46:08;3.95;;;2.15;;
39448;SDS011;25151;45.566;9.382;2022-12-04T03:49:37;3.05;;;2.63;;
39448;SDS011;25151;45.566;9.382;2022-12-04T03:52:47;3.03;;;2.40;;
39448;SDS011;25151;45.566;9.382;2022-12-04T03:55:58;3.00;;;2.10;;
39448;SDS011;25151;45.566;9.382;2022-12-04T03:59:11;4.45;;;2.33;;
39448;SDS011;25151;45.566;9.382;2022-12-04T04:02:17;3.85;;;2.80;;
39448;SDS011;25151;45.566;9.382;2022-12-04T04:05:21;2.78;;;2.03;;
39448;SDS011;25151;45.566;9.382;2022-12-04T04:08:26;3.35;;;2.17;;
39448;SDS011;25151;45.566;9.382;2022-12-04T04:11:34;3.47;;;2.10;;
39448;SDS011;25151;45.566;9.382;2022-12-04T04:15:13;3.35;;;1.95;;
39448;SDS011;25151;45.566;9.382;2022-12-04T04:18:35;3.22;;;2.10;;
39448;SDS011;25151;45.566;9.382;2022-12-04T04:21:56;2.65;;;2.25;;
39448;SDS011;25151;45.566;9.382;2022-12-04T04:25:19;2.85;;;2.25;;
39448;SDS011;25151;45.566;9.382;2022-12-04T04:28:27;2.80;;;2.05;;
39448;SDS011;25151;45.566;9.382;2022-12-04T04:31:35;3.35;;;2.35;;
39448;SDS011;25151;45.566;9.382;2022-12-04T04:34:49;2.67;;;2.30;;
39448;SDS011;25151;45.566;9.382;2022-12-04T04:41:09;3.08;;;1.90;;
39448;SDS011;25151;45.566;9.382;2022-12-04T04:44:25;2.35;;;1.95;;
39448;SDS011;25151;45.566;9.382;2022-12-04T04:50:34;2.88;;;2.30;;
39448;SDS011;25151;45.566;9.382;2022-12-04T04:53:38;2.38;;;2.17;;
39448;SDS011;25151;45.566;9.382;2022-12-04T04:56:43;2.70;;;2.20;;
39448;SDS011;25151;45.566;9.382;2022-12-04T04:59:46;2.65;;;2.10;;
39448;SDS011;25151;45.566;9.382;2022-12-04T05:02:47;3.25;;;1.98;;
39448;SDS011;25151;45.566;9.382;2022-12-04T05:05:49;2.60;;;2.10;;
39448;SDS011;25151;45.566;9.382;2022-12-04T05:08:50;2.80;;;1.90;;
39448;SDS011;25151;45.566;9.382;2022-12-04T05:11:50;2.75;;;1.83;;
39448;SDS011;25151;45.566;9.382;2022-12-04T05:14:51;4.78;;;2.78;;
39448;SDS011;25151;45.566;9.382;2022-12-04T05:17:52;3.63;;;2.58;;
39448;SDS011;25151;45.566;9.382;2022-12-04T05:20:53;2.30;;;2.10;;
39448;SDS011;25151;45.566;9.382;2022-12-04T05:23:55;2.55;;;2.35;;
39448;SDS011;25151;45.566;9.382;2022-12-04T05:26:56;3.17;;;2.35;;
39448;SDS011;25151;45.566;9.382;2022-12-04T05:29:57;2.97;;;2.17;;
39448;SDS011;25151;45.566;9.382;2022-12-04T05:32:58;3.13;;;2.08;;
39448;SDS011;25151;45.566;9.382;2022-12-04T05:36:09;2.88;;;2.00;;
39448;SDS011;25151;45.566;9.382;2022-12-04T05:39:12;3.03;;;1.92;;
39448;SDS011;25151;45.566;9.382;2022-12-04T05:42:13;2.80;;;2.03;;
39448;SDS011;25151;45.566;9.382;2022-12-04T05:45:14;3.25;;;1.80;;
39448;SDS011;25151;45.566;9.382;2022-12-04T05:48:15;3.50;;;2.03;;
39448;SDS011;25151;45.566;9.382;2022-12-04T05:51:16;2.75;;;2.15;;
39448;SDS011;25151;45.566;9.382;2022-12-04T05:54:17;1.83;;;1.70;;
39448;SDS011;25151;45.566;9.382;2022-12-04T05:57:19;3.03;;;2.10;;
39448;SDS011;25151;45.566;9.382;2022-12-04T06:00:20;2.30;;;1.83;;
39448;SDS011;25151;45.566;9.382;2022-12-04T06:03:21;4.30;;;1.88;;
39448;SDS011;25151;45.566;9.382;2022-12-04T06:06:23;3.03;;;2.40;;
39448;SDS011;25151;45.566;9.382;2022-12-04T06:09:25;2.05;;;1.70;;
39448;SDS011;25151;45.566;9.382;2022-12-04T06:12:26;3.25;;;2.25;;
39448;SDS011;25151;45.566;9.382;2022-12-04T06:15:26;2.88;;;2.22;;
39448;SDS011;25151;45.566;9.382;2022-12-04T06:18:27;3.80;;;2.30;;
39448;SDS011;25151;45.566;9.382;2022-12-04T06:21:29;2.50;;;2.05;;
39448;SDS011;25151;45.566;9.382;2022-12-04T06:24:31;3.10;;;2.25;;
39448;SDS011;25151;45.566;9.382;2022-12-04T06:27:32;2.05;;;1.80;;
39448;SDS011;25151;45.566;9.382;2022-12-04T06:30:33;2.67;;;1.98;;
39448;SDS011;25151;45.566;9.382;2022-12-04T06:33:34;2.55;;;1.95;;
39448;SDS011;25151;45.566;9.382;2022-12-04T06:36:35;2.80;;;2.17;;
39448;SDS011;25151;45.566;9.382;2022-12-04T06:39:36;2.60;;;1.90;;
39448;SDS011;25151;45.566;9.382;2022-12-04T06:42:37;2.50;;;2.15;;
39448;SDS011;25151;45.566;9.382;2022-12-04T06:45:38;3.08;;;2.28;;
39448;SDS011;25151;45.566;9.382;2022-12-04T06:48:39;3.28;;;2.38;;
39448;SDS011;25151;45.566;9.382;2022-12-04T06:51:40;3.22;;;2.13;;
39448;SDS011;25151;45.566;9.382;2022-12-04T06:54:41;2.65;;;1.70;;
39448;SDS011;25151;45.566;9.382;2022-12-04T06:57:42;4.30;;;1.98;;
39448;SDS011;25151;45.566;9.382;2022-12-04T07:00:42;2.58;;;1.88;;
39448;SDS011;25151;45.566;9.382;2022-12-04T07:03:43;2.28;;;1.90;;
39448;SDS011;25151;45.566;9.382;2022-12-04T07:06:45;2.30;;;1.80;;
39448;SDS011;25151;45.566;9.382;2022-12-04T07:09:46;3.47;;;1.98;;
39448;SDS011;25151;45.566;9.382;2022-12-04T07:12:46;2.88;;;2.22;;
39448;SDS011;25151;45.566;9.382;2022-12-04T07:15:47;2.70;;;2.00;;
39448;SDS011;25151;45.566;9.382;2022-12-04T07:18:48;2.53;;;1.92;;
39448;SDS011;25151;45.566;9.382;2022-12-04T07:21:49;3.42;;;2.22;;
39448;SDS011;25151;45.566;9.382;2022-12-04T07:24:50;3.17;;;1.77;;
39448;SDS011;25151;45.566;9.382;2022-12-04T07:27:51;2.47;;;2.20;;
39448;SDS011;25151;45.566;9.382;2022-12-04T07:30:51;2.30;;;1.80;;
39448;SDS011;25151;45.566;9.382;2022-12-04T07:33:52;2.78;;;1.75;;
39448;SDS011;25151;45.566;9.382;2022-12-04T07:36:54;2.50;;;2.20;;
39448;SDS011;25151;45.566;9.382;2022-12-04T07:39:55;2.42;;;1.80;;
39448;SDS011;25151;45.566;9.382;2022-12-04T07:42:56;2.05;;;1.73;;
39448;SDS011;25151;45.566;9.382;2022-12-04T07:45:57;2.85;;;2.00;;
39448;SDS011;25151;45.566;9.382;2022-12-04T07:49:02;2.13;;;1.83;;
39448;SDS011;25151;45.566;9.382;2022-12-04T07:52:03;2.30;;;2.10;;
39448;SDS011;25151;45.566;9.382;2022-12-04T07:55:05;3.00;;;2.00;;
39448;SDS011;25151;45.566;9.382;2022-12-04T07:58:07;2.35;;;1.90;;
39448;SDS011;25151;45.566;9.382;2022-12-04T08:01:13;2.20;;;1.77;;
39448;SDS011;25151;45.566;9.382;2022-12-04T08:04:15;2.38;;;1.73;;
39448;SDS011;25151;45.566;9.382;2022-12-04T08:07:16;3.03;;;1.67;;
39448;SDS011;25151;45.566;9.382;2022-12-04T08:10:17;2.20;;;1.90;;
39448;SDS011;25151;45.566;9.382;2022-12-04T08:13:18;2.97;;;1.65;;
39448;SDS011;25151;45.566;9.382;2022-12-04T08:16:20;3.13;;;1.90;;
39448;SDS011;25151;45.566;9.382;2022-12-04T08:19:21;1.98;;;1.75;;
39448;SDS011;25151;45.566;9.382;2022-12-04T08:22:22;2.08;;;1.88;;
39448;SDS011;25151;45.566;9.382;2022-12-04T08:25:24;1.60;;;1.48;;
39448;SDS011;25151;45.566;9.382;2022-12-04T08:28:25;2.58;;;1.75;;
39448;SDS011;25151;45.566;9.382;2022-12-04T08:31:27;3.60;;;2.00;;
39448;SDS011;25151;45.566;9.382;2022-12-04T08:34:29;3.47;;;1.75;;
39448;SDS011;25151;45.566;9.382;2022-12-04T08:37:30;2.15;;;1.73;;
39448;SDS011;25151;45.566;9.382;2022-12-04T08:40:32;3.15;;;1.80;;
39448;SDS011;25151;45.566;9.382;2022-12-04T08:43:33;2.58;;;1.85;;
39448;SDS011;25151;45.566;9.382;2022-12-04T08:46:35;5.80;;;2.08;;
39448;SDS011;25151;45.566;9.382;2022-12-04T08:49:36;3.75;;;1.67;;
39448;SDS011;25151;45.566;9.382;2022-12-04T08:52:37;5.03;;;1.90;;
39448;SDS011;25151;45.566;9.382;2022-12-04T08:55:38;3.85;;;1.77;;
39448;SDS011;25151;45.566;9.382;2022-12-04T08:58:40;3.05;;;1.80;;
39448;SDS011;25151;45.566;9.382;2022-12-04T09:01:41;10.65;;;1.83;;
39448;SDS011;25151;45.566;9.382;2022-12-04T09:04:42;2.38;;;1.50;;
39448;SDS011;25151;45.566;9.382;2022-12-04T09:07:43;2.25;;;1.48;;
39448;SDS011;25151;45.566;9.382;2022-12-04T09:10:44;3.45;;;1.85;;
39448;SDS011;25151;45.566;9.382;2022-12-04T09:13:45;2.30;;;1.50;;
39448;SDS011;25151;45.566;9.382;2022-12-04T09:16:47;2.65;;;1.38;;
39448;SDS011;25151;45.566;9.382;2022-12-04T09:19:48;4.28;;;1.48;;
39448;SDS011;25151;45.566;9.382;2022-12-04T09:22:49;3.20;;;1.70;;
39448;SDS011;25151;45.566;9.382;2022-12-04T09:25:50;1.63;;;1.23;;
39448;SDS011;25151;45.566;9.382;2022-12-04T09:28:52;2.55;;;1.42;;
39448;SDS011;25151;45.566;9.382;2022-12-04T09:31:54;5.90;;;1.65;;
39448;SDS011;25151;45.566;9.382;2022-12-04T09:34:55;10.23;;;1.70;;
39448;SDS011;25151;45.566;9.382;2022-12-04T09:37:56;2.47;;;1.50;;
39448;SDS011;25151;45.566;9.382;2022-12-04T09:41:03;5.63;;;1.75;;
39448;SDS011;25151;45.566;9.382;2022-12-04T09:44:31;4.57;;;1.50;;
39448;SDS011;25151;45.566;9.382;2022-12-04T09:47:43;4.85;;;1.50;;
39448;SDS011;25151;45.566;9.382;2022-12-04T09:50:47;3.70;;;1.70;;
39448;SDS011;25151;45.566;9.382;2022-12-04T09:53:59;2.78;;;1.63;;
39448;SDS011;25151;45.566;9.382;2022-12-04T09:57:15;4.05;;;1.50;;
39448;SDS011;25151;45.566;9.382;2022-12-04T10:00:28;3.45;;;1.58;;
39448;SDS011;25151;45.566;9.382;2022-12-04T10:03:30;1.98;;;1.30;;
39448;SDS011;25151;45.566;9.382;2022-12-04T10:06:35;2.00;;;1.40;;
39448;SDS011;25151;45.566;9.382;2022-12-04T10:16:10;4.35;;;1.77;;
39448;SDS011;25151;45.566;9.382;2022-12-04T10:26:08;6.60;;;1.50;;
39448;SDS011;25151;45.566;9.382;2022-12-04T10:29:33;3.70;;;1.60;;
39448;SDS011;25151;45.566;9.382;2022-12-04T10:32:37;3.17;;;1.70;;
39448;SDS011;25151;45.566;9.382;2022-12-04T10:35:41;6.47;;;1.77;;
39448;SDS011;25151;45.566;9.382;2022-12-04T10:45:11;3.35;;;1.52;;
39448;SDS011;25151;45.566;9.382;2022-12-04T10:48:23;3.90;;;1.25;;
39448;SDS011;25151;45.566;9.382;2022-12-04T10:51:38;2.65;;;1.70;;
39448;SDS011;25151;45.566;9.382;2022-12-04T10:57:53;2.10;;;1.27;;
39448;SDS011;25151;45.566;9.382;2022-12-04T11:04:26;2.70;;;1.67;;
39448;SDS011;25151;45.566;9.382;2022-12-04T11:07:32;2.53;;;1.25;;
39448;SDS011;25151;45.566;9.382;2022-12-04T11:10:40;4.85;;;2.17;;
39448;SDS011;25151;45.566;9.382;2022-12-04T11:13:42;5.43;;;1.40;;
39448;SDS011;25151;45.566;9.382;2022-12-04T11:16:44;4.47;;;1.52;;
39448;SDS011;25151;45.566;9.382;2022-12-04T11:19:57;4.20;;;1.70;;
39448;SDS011;25151;45.566;9.382;2022-12-04T11:23:03;3.17;;;1.42;;
39448;SDS011;25151;45.566;9.382;2022-12-04T11:26:04;3.40;;;1.55;;
39448;SDS011;25151;45.566;9.382;2022-12-04T11:29:06;3.50;;;1.38;;
39448;SDS011;25151;45.566;9.382;2022-12-04T11:32:30;7.18;;;1.77;;
39448;SDS011;25151;45.566;9.382;2022-12-04T11:35:33;3.47;;;1.25;;
39448;SDS011;25151;45.566;9.382;2022-12-04T11:38:34;5.28;;;1.58;;
39448;SDS011;25151;45.566;9.382;2022-12-04T11:41:35;2.42;;;1.33;;
39448;SDS011;25151;45.566;9.382;2022-12-04T11:44:36;2.85;;;1.58;;
39448;SDS011;25151;45.566;9.382;2022-12-04T11:47:38;2.08;;;1.20;;
39448;SDS011;25151;45.566;9.382;2022-12-04T11:54:08;3.60;;;1.52;;
39448;SDS011;25151;45.566;9.382;2022-12-04T12:00:48;5.35;;;1.70;;
39448;SDS011;25151;45.566;9.382;2022-12-04T12:04:04;1.83;;;1.23;;
39448;SDS011;25151;45.566;9.382;2022-12-04T12:18:07;3.17;;;1.50;;
39448;SDS011;25151;45.566;9.382;2022-12-04T12:21:11;5.53;;;1.80;;
39448;SDS011;25151;45.566;9.382;2022-12-04T12:34:10;5.90;;;1.83;;
39448;SDS011;25151;45.566;9.382;2022-12-04T12:37:38;2.33;;;1.40;;
39448;SDS011;25151;45.566;9.382;2022-12-04T12:40:49;5.07;;;1.55;;
39448;SDS011;25151;45.566;9.382;2022-12-04T12:44:02;3.45;;;1.33;;
39448;SDS011;25151;45.566;9.382;2022-12-04T12:47:15;2.15;;;1.13;;
39448;SDS011;25151;45.566;9.382;2022-12-04T12:50:23;2.10;;;1.40;;
39448;SDS011;25151;45.566;9.382;2022-12-04T12:53:33;4.07;;;1.55;;
39448;SDS011;25151;45.566;9.382;2022-12-04T12:56:40;2.70;;;1.65;;
39448;SDS011;25151;45.566;9.382;2022-12-04T12:59:48;3.15;;;1.55;;
39448;SDS011;25151;45.566;9.382;2022-12-04T13:03:00;2.65;;;1.05;;
39448;SDS011;25151;45.566;9.382;2022-12-04T13:06:08;5.82;;;1.50;;
39448;SDS011;25151;45.566;9.382;2022-12-04T13:12:20;3.67;;;1.20;;
39448;SDS011;25151;45.566;9.382;2022-12-04T13:15:23;2.55;;;1.10;;
39448;SDS011;25151;45.566;9.382;2022-12-04T13:42:01;3.80;;;1.35;;
39448;SDS011;25151;45.566;9.382;2022-12-04T13:45:05;2.53;;;1.40;;
39448;SDS011;25151;45.566;9.382;2022-12-04T13:48:11;2.13;;;1.17;;
39448;SDS011;25151;45.566;9.382;2022-12-04T14:00:29;5.25;;;1.35;;
39448;SDS011;25151;45.566;9.382;2022-12-04T14:03:53;2.80;;;1.50;;
39448;SDS011;25151;45.566;9.382;2022-12-04T14:06:59;2.42;;;1.33;;
39448;SDS011;25151;45.566;9.382;2022-12-04T14:10:07;6.43;;;1.98;;
39448;SDS011;25151;45.566;9.382;2022-12-04T14:13:27;1.90;;;1.40;;
39448;SDS011;25151;45.566;9.382;2022-12-04T14:16:50;2.92;;;1.38;;
39448;SDS011;25151;45.566;9.382;2022-12-04T14:19:54;3.15;;;1.90;;
39448;SDS011;25151;45.566;9.382;2022-12-04T14:26:28;3.20;;;1.70;;
39448;SDS011;25151;45.566;9.382;2022-12-04T14:29:38;2.90;;;1.40;;
39448;SDS011;25151;45.566;9.382;2022-12-04T14:32:47;3.80;;;1.50;;
39448;SDS011;25151;45.566;9.382;2022-12-04T14:36:04;3.83;;;1.80;;
39448;SDS011;25151;45.566;9.382;2022-12-04T14:39:11;2.20;;;1.40;;
39448;SDS011;25151;45.566;9.382;2022-12-04T14:42:32;3.13;;;1.33;;
39448;SDS011;25151;45.566;9.382;2022-12-04T14:45:56;2.60;;;1.20;;
39448;SDS011;25151;45.566;9.382;2022-12-04T14:49:26;3.35;;;1.40;;
39448;SDS011;25151;45.566;9.382;2022-12-04T14:52:38;2.92;;;1.38;;
39448;SDS011;25151;45.566;9.382;2022-12-04T14:59:26;3.17;;;1.27;;
39448;SDS011;25151;45.566;9.382;2022-12-04T15:05:38;4.00;;;1.30;;
39448;SDS011;25151;45.566;9.382;2022-12-04T15:08:47;2.85;;;1.58;;
39448;SDS011;25151;45.566;9.382;2022-12-04T15:11:51;3.97;;;1.40;;
39448;SDS011;25151;45.566;9.382;2022-12-04T15:15:17;1.70;;;1.10;;
39448;SDS011;25151;45.566;9.382;2022-12-04T15:18:24;1.58;;;1.20;;
39448;SDS011;25151;45.566;9.382;2022-12-04T15:21:46;2.58;;;1.17;;
39448;SDS011;25151;45.566;9.382;2022-12-04T15:24:47;3.83;;;1.40;;
39448;SDS011;25151;45.566;9.382;2022-12-04T15:27:49;2.20;;;1.50;;
39448;SDS011;25151;45.566;9.382;2022-12-04T15:30:53;6.38;;;1.20;;
39448;SDS011;25151;45.566;9.382;2022-12-04T15:33:56;1.95;;;1.55;;
39448;SDS011;25151;45.566;9.382;2022-12-04T15:37:05;3.63;;;1.40;;
39448;SDS011;25151;45.566;9.382;2022-12-04T15:40:24;2.10;;;1.00;;
39448;SDS011;25151;45.566;9.382;2022-12-04T15:43:29;2.50;;;1.98;;
39448;SDS011;25151;45.566;9.382;2022-12-04T15:46:38;3.22;;;1.33;;
39448;SDS011;25151;45.566;9.382;2022-12-04T15:49:42;2.50;;;1.42;;
39448;SDS011;25151;45.566;9.382;2022-12-04T15:53:19;1.77;;;1.02;;
39448;SDS011;25151;45.566;9.382;2022-12-04T15:56:24;4.05;;;1.48;;
39448;SDS011;25151;45.566;9.382;2022-12-04T15:59:28;4.35;;;1.38;;
39448;SDS011;25151;45.566;9.382;2022-12-04T16:02:30;3.83;;;1.10;;
39448;SDS011;25151;45.566;9.382;2022-12-04T16:05:34;2.15;;;1.30;;
39448;SDS011;25151;45.566;9.382;2022-12-04T16:08:37;2.25;;;1.52;;
39448;SDS011;25151;45.566;9.382;2022-12-04T16:11:41;3.38;;;1.20;;
39448;SDS011;25151;45.566;9.382;2022-12-04T16:14:43;2.40;;;1.20;;
39448;SDS011;25151;45.566;9.382;2022-12-04T16:17:45;2.60;;;1.30;;
39448;SDS011;25151;45.566;9.382;2022-12-04T16:20:48;1.30;;;1.20;;
39448;SDS011;25151;45.566;9.382;2022-12-04T16:23:49;7.35;;;1.88;;
39448;SDS011;25151;45.566;9.382;2022-12-04T16:26:50;2.22;;;1.65;;
39448;SDS011;25151;45.566;9.382;2022-12-04T16:29:54;2.75;;;1.25;;
39448;SDS011;25151;45.566;9.382;2022-12-04T16:32:56;2.55;;;1.60;;
39448;SDS011;25151;45.566;9.382;2022-12-04T16:35:58;2.25;;;1.30;;
39448;SDS011;25151;45.566;9.382;2022-12-04T16:39:03;2.42;;;1.55;;
39448;SDS011;25151;45.566;9.382;2022-12-04T16:42:14;2.72;;;1.30;;
39448;SDS011;25151;45.566;9.382;2022-12-04T16:48:21;2.17;;;1.58;;
39448;SDS011;25151;45.566;9.382;2022-12-04T16:51:24;3.25;;;1.30;;
39448;SDS011;25151;45.566;9.382;2022-12-04T16:54:26;2.83;;;1.60;;
39448;SDS011;25151;45.566;9.382;2022-12-04T16:57:28;3.00;;;1.45;;
39448;SDS011;25151;45.566;9.382;2022-12-04T17:00:30;3.08;;;1.27;;
39448;SDS011;25151;45.566;9.382;2022-12-04T17:03:32;1.90;;;1.40;;
39448;SDS011;25151;45.566;9.382;2022-12-04T17:06:34;2.28;;;1.13;;
39448;SDS011;25151;45.566;9.382;2022-12-04T17:09:36;2.38;;;1.00;;
39448;SDS011;25151;45.566;9.382;2022-12-04T17:12:41;1.77;;;1.08;;
39448;SDS011;25151;45.566;9.382;2022-12-04T17:15:43;1.73;;;1.08;;
39448;SDS011;25151;45.566;9.382;2022-12-04T17:18:44;4.78;;;1.45;;
39448;SDS011;25151;45.566;9.382;2022-12-04T17:21:45;2.35;;;1.30;;
39448;SDS011;25151;45.566;9.382;2022-12-04T17:24:46;1.95;;;1.35;;
39448;SDS011;25151;45.566;9.382;2022-12-04T17:27:50;2.85;;;1.10;;
39448;SDS011;25151;45.566;9.382;2022-12-04T17:30:51;9.57;;;1.13;;
39448;SDS011;25151;45.566;9.382;2022-12-04T17:33:52;2.85;;;1.20;;
39448;SDS011;25151;45.566;9.382;2022-12-04T17:36:53;2.25;;;1.40;;
39448;SDS011;25151;45.566;9.382;2022-12-04T17:39:55;1.83;;;1.25;;
39448;SDS011;25151;45.566;9.382;2022-12-04T17:42:56;3.17;;;1.63;;
39448;SDS011;25151;45.566;9.382;2022-12-04T17:45:57;2.05;;;1.15;;
39448;SDS011;25151;45.566;9.382;2022-12-04T17:48:58;1.48;;;1.35;;
39448;SDS011;25151;45.566;9.382;2022-12-04T17:51:59;3.35;;;1.38;;
39448;SDS011;25151;45.566;9.382;2022-12-04T17:55:00;2.90;;;1.10;;
39448;SDS011;25151;45.566;9.382;2022-12-04T17:58:01;1.40;;;1.10;;
39448;SDS011;25151;45.566;9.382;2022-12-04T18:01:03;2.00;;;1.00;;
39448;SDS011;25151;45.566;9.382;2022-12-04T18:04:06;2.45;;;1.17;;
39448;SDS011;25151;45.566;9.382;2022-12-04T18:07:08;1.90;;;1.35;;
39448;SDS011;25151;45.566;9.382;2022-12-04T18:10:10;3.20;;;1.60;;
39448;SDS011;25151;45.566;9.382;2022-12-04T18:13:11;3.28;;;1.40;;
39448;SDS011;25151;45.566;9.382;2022-12-04T18:16:12;2.38;;;1.50;;
39448;SDS011;25151;45.566;9.382;2022-12-04T18:19:13;1.67;;;1.20;;
39448;SDS011;25151;45.566;9.382;2022-12-04T18:22:15;4.38;;;1.58;;
39448;SDS011;25151;45.566;9.382;2022-12-04T18:25:15;4.43;;;1.75;;
39448;SDS011;25151;45.566;9.382;2022-12-04T18:28:16;4.75;;;1.45;;
39448;SDS011;25151;45.566;9.382;2022-12-04T18:31:18;2.33;;;1.33;;
39448;SDS011;25151;45.566;9.382;2022-12-04T18:34:19;1.40;;;1.20;;
39448;SDS011;25151;45.566;9.382;2022-12-04T18:37:21;2.53;;;1.23;;
39448;SDS011;25151;45.566;9.382;2022-12-04T18:40:22;1.70;;;1.10;;
39448;SDS011;25151;45.566;9.382;2022-12-04T18:43:24;1.95;;;1.40;;
39448;SDS011;25151;45.566;9.382;2022-12-04T18:46:27;2.53;;;1.30;;
39448;SDS011;25151;45.566;9.382;2022-12-04T18:49:29;3.88;;;1.40;;
39448;SDS011;25151;45.566;9.382;2022-12-04T18:52:33;3.30;;;1.20;;
39448;SDS011;25151;45.566;9.382;2022-12-04T18:55:37;2.17;;;1.33;;
39448;SDS011;25151;45.566;9.382;2022-12-04T18:58:39;1.80;;;1.40;;
39448;SDS011;25151;45.566;9.382;2022-12-04T19:01:41;2.22;;;1.20;;
39448;SDS011;25151;45.566;9.382;2022-12-04T19:04:45;2.30;;;1.45;;
39448;SDS011;25151;45.566;9.382;2022-12-04T19:07:48;2.53;;;1.38;;
39448;SDS011;25151;45.566;9.382;2022-12-04T19:10:53;2.30;;;1.85;;
39448;SDS011;25151;45.566;9.382;2022-12-04T19:13:54;2.17;;;1.15;;
39448;SDS011;25151;45.566;9.382;2022-12-04T19:16:58;2.38;;;1.20;;
39448;SDS011;25151;45.566;9.382;2022-12-04T19:20:00;2.35;;;1.33;;
39448;SDS011;25151;45.566;9.382;2022-12-04T19:23:01;2.55;;;1.20;;
39448;SDS011;25151;45.566;9.382;2022-12-04T19:26:07;2.47;;;1.38;;
39448;SDS011;25151;45.566;9.382;2022-12-04T19:29:07;1.92;;;1.27;;
39448;SDS011;25151;45.566;9.382;2022-12-04T19:32:12;2.35;;;1.50;;
39448;SDS011;25151;45.566;9.382;2022-12-04T19:35:13;1.85;;;1.40;;
39448;SDS011;25151;45.566;9.382;2022-12-04T19:38:14;2.13;;;1.55;;
39448;SDS011;25151;45.566;9.382;2022-12-04T19:41:16;2.80;;;1.65;;
39448;SDS011;25151;45.566;9.382;2022-12-04T19:44:18;2.42;;;1.38;;
39448;SDS011;25151;45.566;9.382;2022-12-04T19:47:21;1.55;;;1.20;;
39448;SDS011;25151;45.566;9.382;2022-12-04T19:50:22;2.60;;;1.30;;
39448;SDS011;25151;45.566;9.382;2022-12-04T19:53:22;2.08;;;1.33;;
39448;SDS011;25151;45.566;9.382;2022-12-04T19:56:23;2.55;;;1.35;;
39448;SDS011;25151;45.566;9.382;2022-12-04T19:59:25;2.45;;;1.10;;
39448;SDS011;25151;45.566;9.382;2022-12-04T20:02:26;4.13;;;1.63;;
39448;SDS011;25151;45.566;9.382;2022-12-04T20:05:27;3.97;;;1.48;;
39448;SDS011;25151;45.566;9.382;2022-12-04T20:08:27;1.67;;;1.15;;
39448;SDS011;25151;45.566;9.382;2022-12-04T20:11:28;1.42;;;1.10;;
39448;SDS011;25151;45.566;9.382;2022-12-04T20:14:29;3.03;;;1.30;;
39448;SDS011;25151;45.566;9.382;2022-12-04T20:17:32;2.08;;;1.40;;
39448;SDS011;25151;45.566;9.382;2022-12-04T20:20:33;1.90;;;1.40;;
39448;SDS011;25151;45.566;9.382;2022-12-04T20:23:33;1.73;;;1.00;;
39448;SDS011;25151;45.566;9.382;2022-12-04T20:26:35;1.83;;;1.40;;
39448;SDS011;25151;45.566;9.382;2022-12-04T20:29:38;3.42;;;1.20;;
39448;SDS011;25151;45.566;9.382;2022-12-04T20:32:40;4.55;;;1.15;;
39448;SDS011;25151;45.566;9.382;2022-12-04T20:35:41;1.80;;;1.10;;
39448;SDS011;25151;45.566;9.382;2022-12-04T20:38:42;1.17;;;0.90;;